createdAt,value
2022-10-18T00:00:58.706Z,17.66
2022-10-18T00:03:26.171Z,17.66
2022-10-18T00:05:53.243Z,17.64
2022-10-18T00:08:21.110Z,17.63
2022-10-18T00:10:49.018Z,17.62
2022-10-18T00:13:16.200Z,17.59
2022-10-18T00:15:51.807Z,17.57
2022-10-18T00:18:19.827Z,17.56
2022-10-18T00:21:00.322Z,17.53
2022-10-18T00:23:30.271Z,17.52
2022-10-18T00:26:14.999Z,17.49
2022-10-18T00:28:43.510Z,17.47
2022-10-18T00:31:22.238Z,17.47
2022-10-18T00:33:56.451Z,17.45
2022-10-18T00:36:24.677Z,17.43
2022-10-18T00:38:52.256Z,17.41
2022-10-18T00:41:26.841Z,17.38
2022-10-18T00:44:04.350Z,17.35
2022-10-18T00:46:35.295Z,17.35
2022-10-18T00:49:17.618Z,17.33
2022-10-18T00:52:00.172Z,17.32
2022-10-18T00:54:30.284Z,17.32
2022-10-18T00:56:57.513Z,17.28
2022-10-18T00:59:26.043Z,17.27
2022-10-18T01:01:53.382Z,17.24
2022-10-18T01:04:21.587Z,17.24
2022-10-18T01:07:57.397Z,17.22
2022-10-18T01:11:10.127Z,17.20
2022-10-18T01:13:44.313Z,17.17
2022-10-18T01:16:46.071Z,17.14
2022-10-18T01:19:43.944Z,17.14
2022-10-18T01:22:30.935Z,17.12
2022-10-18T01:25:18.808Z,17.10
2022-10-18T01:28:16.510Z,17.07
2022-10-18T01:30:52.893Z,17.04
2022-10-18T01:34:03.082Z,17.03
2022-10-18T01:36:36.697Z,17.03
2022-10-18T01:39:09.695Z,17.02
2022-10-18T01:41:40.118Z,17.01
2022-10-18T01:44:11.600Z,17.00
2022-10-18T01:46:41.564Z,16.98
2022-10-18T01:49:08.758Z,16.98
2022-10-18T01:51:35.859Z,16.95
2022-10-18T01:54:03.212Z,16.95
2022-10-18T01:56:46.210Z,16.93
2022-10-18T01:59:32.268Z,16.91
2022-10-18T02:02:16.312Z,16.90
2022-10-18T02:05:03.534Z,16.86
2022-10-18T02:08:22.438Z,16.85
2022-10-18T02:10:58.695Z,16.82
2022-10-18T02:13:30.495Z,16.81
2022-10-18T02:16:03.799Z,16.80
2022-10-18T02:18:42.328Z,16.77
2022-10-18T02:21:13.604Z,16.75
2022-10-18T02:23:40.557Z,16.76
2022-10-18T02:26:07.741Z,16.74
2022-10-18T02:28:34.804Z,16.74
2022-10-18T02:31:21.786Z,16.73
2022-10-18T02:34:11.802Z,16.70
2022-10-18T02:36:46.197Z,16.69
2022-10-18T02:39:18.639Z,16.68
2022-10-18T02:41:45.652Z,16.68
2022-10-18T02:44:12.999Z,16.67
2022-10-18T02:46:40.558Z,16.67
2022-10-18T02:49:07.504Z,16.65
2022-10-18T02:51:34.714Z,16.62
2022-10-18T02:54:01.687Z,16.62
2022-10-18T02:56:28.604Z,16.59
2022-10-18T02:58:55.674Z,16.60
2022-10-18T03:01:22.651Z,16.60
2022-10-18T03:03:49.925Z,16.59
2022-10-18T03:06:17.565Z,16.58
2022-10-18T03:08:44.846Z,16.58
2022-10-18T03:11:11.792Z,16.58
2022-10-18T03:13:38.683Z,16.57
2022-10-18T03:16:05.879Z,16.55
2022-10-18T03:18:33.036Z,16.54
2022-10-18T03:21:05.940Z,16.53
2022-10-18T03:23:33.900Z,16.52
2022-10-18T03:26:01.439Z,16.50
2022-10-18T03:28:28.792Z,16.49
2022-10-18T03:31:04.040Z,16.48
2022-10-18T03:33:32.648Z,16.48
2022-10-18T03:36:00.325Z,16.46
2022-10-18T03:38:27.587Z,16.44
2022-10-18T03:40:54.507Z,16.44
2022-10-18T03:43:21.737Z,16.43
2022-10-18T03:45:48.662Z,16.44
2022-10-18T03:48:15.712Z,16.43
2022-10-18T03:50:43.553Z,16.43
2022-10-18T03:53:10.592Z,16.43
2022-10-18T03:55:38.434Z,16.41
2022-10-18T03:58:05.745Z,16.39
2022-10-18T04:00:33.151Z,16.38
2022-10-18T04:03:00.094Z,16.33
2022-10-18T04:05:28.542Z,16.32
2022-10-18T04:07:55.508Z,16.31
2022-10-18T04:10:22.718Z,16.28
2022-10-18T04:12:49.636Z,16.29
2022-10-18T04:15:16.634Z,16.29
2022-10-18T04:17:43.544Z,16.29
2022-10-18T04:20:10.992Z,16.28
2022-10-18T04:22:38.164Z,16.27
2022-10-18T04:25:05.883Z,16.25
2022-10-18T04:27:33.008Z,16.25
2022-10-18T04:30:00.060Z,16.22
2022-10-18T04:32:29.052Z,16.22
2022-10-18T04:34:55.965Z,16.21
2022-10-18T04:37:23.238Z,16.21
2022-10-18T04:39:53.443Z,16.20
2022-10-18T04:42:21.959Z,16.20
2022-10-18T04:44:49.494Z,16.18
2022-10-18T04:47:17.456Z,16.17
2022-10-18T04:49:44.687Z,16.17
2022-10-18T04:52:13.708Z,16.17
2022-10-18T04:54:41.100Z,16.17
2022-10-18T04:57:08.255Z,16.17
2022-10-18T04:59:35.479Z,16.16
2022-10-18T05:04:29.524Z,16.16
2022-10-18T05:06:56.537Z,16.15
2022-10-18T05:09:24.784Z,16.15
2022-10-18T05:11:51.814Z,16.17
2022-10-18T05:14:19.081Z,16.17
2022-10-18T05:16:46.224Z,16.18
2022-10-18T05:19:13.182Z,16.17
2022-10-18T05:21:40.827Z,16.17
2022-10-18T05:24:08.173Z,16.19
2022-10-18T05:26:35.121Z,16.19
2022-10-18T05:29:03.382Z,16.19
2022-10-18T05:31:30.398Z,16.18
2022-10-18T05:33:57.479Z,16.16
2022-10-18T05:36:26.122Z,16.15
2022-10-18T05:38:53.720Z,16.15
2022-10-18T05:41:20.706Z,16.13
2022-10-18T05:43:47.707Z,16.11
2022-10-18T05:46:16.038Z,16.12
2022-10-18T05:48:44.693Z,16.11
2022-10-18T05:51:12.041Z,16.12
2022-10-18T05:53:39.261Z,16.11
2022-10-18T05:56:07.540Z,16.11
2022-10-18T05:58:35.247Z,16.12
2022-10-18T06:01:03.322Z,16.10
2022-10-18T06:03:30.943Z,16.10
2022-10-18T06:06:08.635Z,16.11
2022-10-18T06:08:37.275Z,16.11
2022-10-18T06:11:08.579Z,16.12
2022-10-18T06:13:44.140Z,16.13
2022-10-18T06:16:12.726Z,16.11
2022-10-18T06:18:40.366Z,16.11
2022-10-18T06:21:08.183Z,16.11
2022-10-18T06:23:35.863Z,16.12
2022-10-18T06:26:07.105Z,16.12
2022-10-18T06:28:36.303Z,16.15
2022-10-18T06:31:05.062Z,16.16
2022-10-18T06:33:33.603Z,16.19
2022-10-18T06:36:15.096Z,16.22
2022-10-18T06:38:42.177Z,16.25
2022-10-18T06:41:10.114Z,16.29
2022-10-18T06:43:37.247Z,16.31
2022-10-18T06:46:06.982Z,16.35
2022-10-18T06:48:39.391Z,16.40
2022-10-18T06:51:08.154Z,16.41
2022-10-18T06:53:44.322Z,16.45
2022-10-18T06:56:15.751Z,16.46
2022-10-18T06:58:42.739Z,16.49
2022-10-18T07:01:13.731Z,16.52
2022-10-18T07:03:40.801Z,16.54
2022-10-18T07:06:12.409Z,16.58
2022-10-18T07:08:40.160Z,16.60
2022-10-18T07:11:08.906Z,16.65
2022-10-18T07:13:35.864Z,16.67
2022-10-18T07:16:18.162Z,16.72
2022-10-18T07:18:51.192Z,16.76
2022-10-18T07:21:24.165Z,16.79
2022-10-18T07:23:52.077Z,16.82
2022-10-18T07:26:27.362Z,16.88
2022-10-18T07:29:01.826Z,16.92
2022-10-18T07:31:30.137Z,16.96
2022-10-18T07:33:57.793Z,17.00
2022-10-18T07:36:25.667Z,17.04
2022-10-18T07:38:53.300Z,17.05
2022-10-18T07:41:21.646Z,17.09
2022-10-18T07:43:51.607Z,17.13
2022-10-18T07:46:20.683Z,17.18
2022-10-18T07:48:48.248Z,17.21
2022-10-18T07:51:15.901Z,17.24
2022-10-18T07:53:42.777Z,17.29
2022-10-18T07:56:16.855Z,17.34
2022-10-18T07:58:55.822Z,17.36
2022-10-18T08:01:24.632Z,17.41
2022-10-18T08:03:52.641Z,17.45
2022-10-18T08:06:22.036Z,17.49
2022-10-18T08:08:49.540Z,17.54
2022-10-18T08:11:21.337Z,17.60
2022-10-18T08:13:48.696Z,17.60
2022-10-18T08:16:23.678Z,17.67
2022-10-18T08:18:51.126Z,17.64
2022-10-18T08:21:20.562Z,17.72
2022-10-18T08:23:48.847Z,17.80
2022-10-18T08:26:21.472Z,17.88
2022-10-18T08:29:03.631Z,17.92
2022-10-18T08:31:37.434Z,17.98
2022-10-18T08:34:04.711Z,18.04
2022-10-18T08:36:31.816Z,18.10
2022-10-18T08:38:58.979Z,18.15
2022-10-18T08:41:38.499Z,18.22
2022-10-18T08:44:24.269Z,18.19
2022-10-18T08:47:11.653Z,18.29
2022-10-18T08:49:53.546Z,18.34
2022-10-18T08:52:34.802Z,18.40
2022-10-18T08:55:12.786Z,18.49
2022-10-18T08:57:40.314Z,18.54
2022-10-18T09:00:19.250Z,18.62
2022-10-18T09:03:07.560Z,18.69
2022-10-18T09:05:40.205Z,18.74
2022-10-18T09:08:49.473Z,18.82
2022-10-18T09:11:24.265Z,18.88
2022-10-18T09:14:37.620Z,18.97
2022-10-18T09:17:46.450Z,19.03
2022-10-18T09:20:29.707Z,19.12
2022-10-18T09:23:05.284Z,19.17
2022-10-18T09:26:02.553Z,19.19
2022-10-18T09:28:48.978Z,19.28
2022-10-18T09:31:44.799Z,19.27
2022-10-18T09:34:26.175Z,19.36
2022-10-18T09:36:54.663Z,19.44
2022-10-18T09:39:37.484Z,19.49
2022-10-18T09:42:15.192Z,19.45
2022-10-18T09:44:51.707Z,19.55
2022-10-18T09:47:41.537Z,19.63
2022-10-18T09:50:25.850Z,19.65
2022-10-18T09:53:02.093Z,19.72
2022-10-18T09:55:36.634Z,19.82
2022-10-18T09:58:07.182Z,19.91
2022-10-18T10:00:50.123Z,19.99
2022-10-18T10:03:17.312Z,20.00
2022-10-18T10:05:44.756Z,20.08
2022-10-18T10:08:12.114Z,20.14
2022-10-18T10:10:42.814Z,20.17
2022-10-18T10:13:27.791Z,20.28
2022-10-18T10:16:01.448Z,20.36
2022-10-18T10:18:34.977Z,20.39
2022-10-18T10:21:15.032Z,20.45
2022-10-18T10:23:58.111Z,20.48
2022-10-18T10:26:36.708Z,20.54
2022-10-18T10:29:03.840Z,20.63
2022-10-18T10:31:31.869Z,20.72
2022-10-18T10:34:27.748Z,20.74
2022-10-18T10:36:55.427Z,20.84
2022-10-18T10:39:24.663Z,20.93
2022-10-18T10:41:55.035Z,20.96
2022-10-18T10:44:32.094Z,21.08
2022-10-18T10:47:00.154Z,21.17
2022-10-18T10:49:44.238Z,21.25
2022-10-18T10:52:28.589Z,21.33
2022-10-18T10:57:47.998Z,21.47
2022-10-18T11:00:38.299Z,21.54
2022-10-18T11:03:27.813Z,21.61
2022-10-18T11:06:02.418Z,21.71
2022-10-18T11:08:40.644Z,21.76
2022-10-18T11:11:27.976Z,21.75
2022-10-18T11:14:31.834Z,21.80
2022-10-18T11:17:17.987Z,21.84
2022-10-18T11:20:07.842Z,21.91
2022-10-18T11:23:00.632Z,21.98
2022-10-18T11:26:12.840Z,22.06
2022-10-18T11:29:07.950Z,22.12
2022-10-18T11:31:56.650Z,22.19
2022-10-18T11:34:35.731Z,22.31
2022-10-18T11:37:43.111Z,22.37
2022-10-18T11:40:40.901Z,22.35
2022-10-18T11:44:02.953Z,22.43
2022-10-18T11:47:02.541Z,22.45
2022-10-18T11:50:03.294Z,22.50
2022-10-18T11:52:53.956Z,22.55
2022-10-18T11:59:17.163Z,22.75
2022-10-18T12:02:16.433Z,22.82
2022-10-18T12:08:15.393Z,22.87
2022-10-18T12:11:06.613Z,22.91
2022-10-18T12:13:46.814Z,22.95
2022-10-18T12:16:14.659Z,23.00
2022-10-18T12:18:59.516Z,23.09
2022-10-18T12:21:32.215Z,23.17
2022-10-18T12:24:06.983Z,23.27
2022-10-18T12:26:35.565Z,23.30
2022-10-18T12:29:31.727Z,23.36
2022-10-18T12:32:23.587Z,23.39
2022-10-18T12:35:17.846Z,23.43
2022-10-18T12:37:50.888Z,23.50
2022-10-18T12:40:34.347Z,23.57
2022-10-18T12:43:10.353Z,23.63
2022-10-18T12:45:57.679Z,23.67
2022-10-18T12:48:43.752Z,23.73
2022-10-18T12:51:22.336Z,23.77
2022-10-18T12:53:53.139Z,23.79
2022-10-18T12:56:44.694Z,23.77
2022-10-18T12:59:14.667Z,23.83
2022-10-18T13:01:51.218Z,23.85
2022-10-18T13:04:27.574Z,23.90
2022-10-18T13:06:57.757Z,23.97
2022-10-18T13:09:28.938Z,24.01
2022-10-18T13:12:16.151Z,24.05
2022-10-18T13:15:24.171Z,24.12
2022-10-18T13:18:04.947Z,24.17
2022-10-18T13:20:44.757Z,24.26
2022-10-18T13:23:38.682Z,24.32
2022-10-18T13:26:43.667Z,24.37
2022-10-18T13:29:41.244Z,24.42
2022-10-18T13:32:34.106Z,24.38
2022-10-18T13:35:01.450Z,24.45
2022-10-18T13:37:30.797Z,24.49
2022-10-18T13:40:26.413Z,24.51
2022-10-18T13:42:54.027Z,24.55
2022-10-18T13:45:33.759Z,24.58
2022-10-18T13:48:32.021Z,24.62
2022-10-18T13:51:32.544Z,24.59
2022-10-18T13:54:16.932Z,24.58
2022-10-18T13:57:13.394Z,24.53
2022-10-18T14:00:29.279Z,24.55
2022-10-18T14:03:51.803Z,24.58
2022-10-18T14:06:36.313Z,24.56
2022-10-18T14:09:45.357Z,24.50
2022-10-18T14:12:38.740Z,24.55
2022-10-18T14:15:23.879Z,24.56
2022-10-18T14:17:59.168Z,24.55
2022-10-18T14:20:49.099Z,24.52
2022-10-18T14:23:24.832Z,24.48
2022-10-18T14:26:01.725Z,24.46
2022-10-18T14:28:48.115Z,24.43
2022-10-18T14:31:18.619Z,24.33
2022-10-18T14:33:58.530Z,24.26
2022-10-18T14:36:46.224Z,24.27
2022-10-18T14:39:28.277Z,24.22
2022-10-18T14:41:58.160Z,24.20
2022-10-18T14:44:31.774Z,24.19
2022-10-18T14:47:12.635Z,24.14
2022-10-18T14:49:45.045Z,24.15
2022-10-18T14:52:35.680Z,24.12
2022-10-18T14:55:05.390Z,24.12
2022-10-18T14:57:36.626Z,24.12
2022-10-18T15:02:56.469Z,24.04
2022-10-18T15:05:26.971Z,24.03
2022-10-18T15:07:55.109Z,24.01
2022-10-18T15:10:34.067Z,24.02
2022-10-18T15:13:10.289Z,24.00
2022-10-18T15:15:39.761Z,23.97
2022-10-18T15:18:08.355Z,23.96
2022-10-18T15:20:42.980Z,23.96
2022-10-18T15:23:28.508Z,23.95
2022-10-18T15:26:09.693Z,23.91
2022-10-18T15:28:51.185Z,23.90
2022-10-18T15:31:32.496Z,23.88
2022-10-18T15:34:24.672Z,23.85
2022-10-18T15:36:54.441Z,23.81
2022-10-18T15:39:31.257Z,23.79
2022-10-18T15:42:01.201Z,23.75
2022-10-18T15:44:50.864Z,23.70
2022-10-18T15:47:21.041Z,23.67
2022-10-18T15:49:58.306Z,23.63
2022-10-18T15:52:37.726Z,23.59
2022-10-18T15:55:29.697Z,23.56
2022-10-18T15:58:16.963Z,23.49
2022-10-18T16:00:46.065Z,23.43
2022-10-18T16:03:13.797Z,23.38
2022-10-18T16:05:41.321Z,23.32
2022-10-18T16:08:23.941Z,23.26
2022-10-18T16:10:51.950Z,23.19
2022-10-18T16:13:19.063Z,23.13
2022-10-18T16:15:46.418Z,23.07
2022-10-18T16:18:17.903Z,23.02
2022-10-18T16:20:46.683Z,22.95
2022-10-18T16:23:21.192Z,22.89
2022-10-18T16:25:48.740Z,22.81
2022-10-18T16:28:20.058Z,22.77
2022-10-18T16:30:55.342Z,22.72
2022-10-18T16:33:23.499Z,22.67
2022-10-18T16:35:51.002Z,22.61
2022-10-18T16:38:32.800Z,22.56
2022-10-18T16:41:07.587Z,22.48
2022-10-18T16:43:35.472Z,22.43
2022-10-18T16:46:04.573Z,22.39
2022-10-18T16:48:31.932Z,22.32
2022-10-18T16:50:59.482Z,22.27
2022-10-18T16:53:27.989Z,22.21
2022-10-18T16:55:59.179Z,22.16
2022-10-18T16:58:28.895Z,22.11
2022-10-18T17:00:57.660Z,22.06
2022-10-18T17:03:26.755Z,22.02
2022-10-18T17:05:54.359Z,21.97
2022-10-18T17:08:25.751Z,21.92
2022-10-18T17:10:57.284Z,21.88
2022-10-18T17:13:26.140Z,21.83
2022-10-18T17:15:53.896Z,21.78
2022-10-18T17:18:26.436Z,21.73
2022-10-18T17:20:54.396Z,21.70
2022-10-18T17:23:21.896Z,21.66
2022-10-18T17:26:04.639Z,21.61
2022-10-18T17:28:34.483Z,21.57
2022-10-18T17:31:01.736Z,21.51
2022-10-18T17:33:28.764Z,21.46
2022-10-18T17:35:55.750Z,21.43
2022-10-18T17:38:22.702Z,21.40
2022-10-18T17:40:52.675Z,21.37
2022-10-18T17:43:20.107Z,21.32
2022-10-18T17:45:55.450Z,21.30
2022-10-18T17:48:24.517Z,21.24
2022-10-18T17:50:51.755Z,21.22
2022-10-18T17:53:22.859Z,21.16
2022-10-18T17:55:50.178Z,21.13
2022-10-18T17:58:17.209Z,21.11
2022-10-18T18:00:44.148Z,21.06
2022-10-18T18:03:11.608Z,21.03
2022-10-18T18:05:39.011Z,21.01
2022-10-18T18:08:06.134Z,20.97
2022-10-18T18:10:34.653Z,20.95
2022-10-18T18:13:02.753Z,20.91
2022-10-18T18:15:29.714Z,20.89
2022-10-18T18:17:57.883Z,20.87
2022-10-18T18:20:26.429Z,20.82
2022-10-18T18:22:53.409Z,20.80
2022-10-18T18:25:20.456Z,20.76
2022-10-18T18:27:47.498Z,20.73
2022-10-18T18:30:17.798Z,20.70
2022-10-18T18:32:44.977Z,20.68
2022-10-18T18:35:12.062Z,20.63
2022-10-18T18:37:39.099Z,20.63
2022-10-18T18:40:06.859Z,20.58
2022-10-18T18:42:34.091Z,20.52
2022-10-18T18:45:02.313Z,20.51
2022-10-18T18:47:29.308Z,20.47
2022-10-18T18:49:56.324Z,20.45
2022-10-18T18:52:23.268Z,20.43
2022-10-18T18:54:52.038Z,20.41
2022-10-18T18:57:19.942Z,20.37
2022-10-18T18:59:46.913Z,20.35
2022-10-18T19:02:13.847Z,20.31
2022-10-18T19:04:41.553Z,20.28
2022-10-18T19:07:08.524Z,20.25
2022-10-18T19:09:38.264Z,20.22
2022-10-18T19:12:05.802Z,20.21
2022-10-18T19:14:32.676Z,20.19
2022-10-18T19:17:01.175Z,20.18
2022-10-18T19:19:31.668Z,20.17
2022-10-18T19:22:03.635Z,20.13
2022-10-18T19:24:32.072Z,20.10
2022-10-18T19:27:04.835Z,20.07
2022-10-18T19:29:36.966Z,20.05
2022-10-18T19:32:07.823Z,20.01
2022-10-18T19:34:35.348Z,19.99
2022-10-18T19:37:02.324Z,19.97
2022-10-18T19:39:34.770Z,19.94
2022-10-18T19:42:06.022Z,19.91
2022-10-18T19:44:36.001Z,19.90
2022-10-18T19:47:05.810Z,19.88
2022-10-18T19:49:33.455Z,19.85
2022-10-18T19:52:00.549Z,19.83
2022-10-18T19:54:28.457Z,19.81
2022-10-18T19:56:55.686Z,19.79
2022-10-18T19:59:24.122Z,19.76
2022-10-18T20:01:51.282Z,19.74
2022-10-18T20:04:18.392Z,19.73
2022-10-18T20:06:45.717Z,19.71
2022-10-18T20:09:16.270Z,19.69
2022-10-18T20:11:46.471Z,19.66
2022-10-18T20:14:13.393Z,19.63
2022-10-18T20:16:40.244Z,19.60
2022-10-18T20:19:07.738Z,19.59
2022-10-18T20:21:36.418Z,19.57
2022-10-18T20:24:05.927Z,19.55
2022-10-18T20:26:34.610Z,19.53
2022-10-18T20:29:02.026Z,19.51
2022-10-18T20:31:32.378Z,19.51
2022-10-18T20:34:03.213Z,19.49
2022-10-18T20:36:32.108Z,19.47
2022-10-18T20:39:00.349Z,19.46
2022-10-18T20:41:34.750Z,19.44
2022-10-18T20:44:07.079Z,19.43
2022-10-18T20:46:37.174Z,19.40
2022-10-18T20:49:06.587Z,19.38
2022-10-18T20:51:34.562Z,19.35
2022-10-18T20:56:35.373Z,19.30
2022-10-18T20:59:06.157Z,19.26
2022-10-18T21:01:35.037Z,19.25
2022-10-18T21:04:08.526Z,19.22
2022-10-18T21:06:40.324Z,19.20
2022-10-18T21:09:11.745Z,19.18
2022-10-18T21:11:41.701Z,19.15
2022-10-18T21:14:16.118Z,19.13
2022-10-18T21:16:44.273Z,19.09
2022-10-18T21:19:27.027Z,19.07
2022-10-18T21:21:57.164Z,19.06
2022-10-18T21:24:25.800Z,19.04
2022-10-18T21:26:53.759Z,19.02
2022-10-18T21:29:22.610Z,18.99
2022-10-18T21:31:54.110Z,18.98
2022-10-18T21:34:21.597Z,18.98
2022-10-18T21:36:49.281Z,18.95
2022-10-18T21:39:21.090Z,18.94
2022-10-18T21:41:49.277Z,18.94
2022-10-18T21:44:18.162Z,18.91
2022-10-18T21:46:46.843Z,18.88
2022-10-18T21:49:14.925Z,18.85
2022-10-18T21:51:42.528Z,18.83
2022-10-18T21:54:15.668Z,18.81
2022-10-18T21:56:43.608Z,18.79
2022-10-18T21:59:14.460Z,18.77
2022-10-18T22:01:43.664Z,18.77
2022-10-18T22:04:25.361Z,18.77
2022-10-18T22:06:52.620Z,18.73
2022-10-18T22:09:21.358Z,18.70
2022-10-18T22:11:52.758Z,18.65
2022-10-18T22:14:20.285Z,18.62
2022-10-18T22:16:47.361Z,18.60
2022-10-18T22:19:14.529Z,18.59
2022-10-18T22:21:41.841Z,18.57
2022-10-18T22:24:10.137Z,18.52
2022-10-18T22:26:40.920Z,18.50
2022-10-18T22:29:18.866Z,18.45
2022-10-18T22:31:53.680Z,18.42
2022-10-18T22:34:29.137Z,18.40
2022-10-18T22:36:56.306Z,18.38
2022-10-18T22:39:24.570Z,18.35
2022-10-18T22:41:55.758Z,18.34
2022-10-18T22:44:23.228Z,18.33
2022-10-18T22:46:50.141Z,18.32
2022-10-18T22:49:17.121Z,18.29
2022-10-18T22:51:44.148Z,18.28
2022-10-18T22:54:11.249Z,18.27
2022-10-18T22:56:38.388Z,18.25
2022-10-18T22:59:05.669Z,18.23
2022-10-18T23:01:32.748Z,18.19
2022-10-18T23:04:01.193Z,18.17
2022-10-18T23:06:37.171Z,18.16
2022-10-18T23:09:07.979Z,18.14
2022-10-18T23:11:36.465Z,18.13
2022-10-18T23:14:05.884Z,18.11
2022-10-18T23:16:33.465Z,18.10
2022-10-18T23:19:00.456Z,18.07
2022-10-18T23:21:48.123Z,18.07
2022-10-18T23:24:15.152Z,18.06
2022-10-18T23:26:42.086Z,18.04
2022-10-18T23:29:10.219Z,18.03
2022-10-18T23:31:39.099Z,18.02
2022-10-18T23:34:06.466Z,17.99
2022-10-18T23:36:33.938Z,17.97
2022-10-18T23:39:01.516Z,17.92
2022-10-18T23:41:28.503Z,17.90
2022-10-18T23:43:56.154Z,17.90
2022-10-18T23:46:23.570Z,17.89
2022-10-18T23:48:50.998Z,17.89
2022-10-18T23:51:18.639Z,17.87
2022-10-18T23:53:45.872Z,17.86
2022-10-18T23:56:15.745Z,17.86
2022-10-18T23:58:44.235Z,17.85
